createdAt,value
2023-02-12T00:00:52.585Z,30.23
2023-02-12T00:03:20.968Z,31.43
2023-02-12T00:05:49.503Z,30.37
2023-02-12T00:08:19.152Z,30.93
2023-02-12T00:10:47.443Z,30.10
2023-02-12T00:13:16.128Z,32.17
2023-02-12T00:15:44.954Z,31.43
2023-02-12T00:18:17.235Z,32.93
2023-02-12T00:20:45.453Z,32.77
2023-02-12T00:23:13.975Z,31.60
2023-02-12T00:25:44.125Z,31.77
2023-02-12T00:28:12.603Z,33.10
2023-02-12T00:30:40.806Z,31.00
2023-02-12T00:33:09.388Z,32.67
2023-02-12T00:35:37.595Z,33.00
2023-02-12T00:38:07.868Z,33.00
2023-02-12T00:40:38.774Z,31.63
2023-02-12T00:43:08.591Z,32.20
2023-02-12T00:45:38.220Z,31.30
2023-02-12T00:48:07.254Z,31.33
2023-02-12T00:50:42.350Z,34.37
2023-02-12T00:53:16.114Z,31.70
2023-02-12T00:55:44.974Z,30.20
2023-02-12T00:58:19.955Z,32.47
2023-02-12T01:00:53.776Z,33.97
2023-02-12T01:03:24.776Z,33.43
2023-02-12T01:05:57.702Z,33.43
2023-02-12T01:08:26.345Z,35.03
2023-02-12T01:10:59.439Z,33.00
2023-02-12T01:13:30.558Z,33.53
2023-02-12T01:16:12.616Z,31.20
2023-02-12T01:18:41.388Z,31.77
2023-02-12T01:21:13.868Z,32.63
2023-02-12T01:23:42.628Z,33.73
2023-02-12T01:26:12.170Z,32.20
2023-02-12T01:28:42.909Z,31.10
2023-02-12T01:31:12.813Z,32.17
2023-02-12T01:33:41.507Z,31.50
2023-02-12T01:36:11.359Z,31.83
2023-02-12T01:38:39.770Z,32.87
2023-02-12T01:41:13.235Z,33.10
2023-02-12T01:43:43.541Z,32.60
2023-02-12T01:46:14.993Z,30.93
2023-02-12T01:48:46.380Z,32.63
2023-02-12T01:51:24.415Z,31.53
2023-02-12T01:54:07.199Z,31.47
2023-02-12T01:56:36.804Z,32.13
2023-02-12T01:59:16.534Z,31.97
2023-02-12T02:01:48.184Z,31.90
2023-02-12T02:04:36.742Z,19.13
2023-02-12T02:07:08.200Z,13.50
2023-02-12T02:09:39.682Z,17.43
2023-02-12T02:12:26.054Z,15.93
2023-02-12T02:15:06.101Z,15.23
2023-02-12T02:17:44.451Z,14.63
2023-02-12T02:21:04.914Z,16.83
2023-02-12T02:24:00.612Z,13.37
2023-02-12T02:27:03.446Z,13.83
2023-02-12T02:29:49.744Z,15.33
2023-02-12T02:32:24.592Z,15.77
2023-02-12T02:35:01.547Z,16.13
2023-02-12T02:37:33.996Z,14.70
2023-02-12T02:40:10.361Z,13.30
2023-02-12T02:42:42.078Z,14.83
2023-02-12T02:45:16.650Z,13.70
2023-02-12T02:47:49.700Z,14.60
2023-02-12T02:50:20.511Z,14.13
2023-02-12T02:52:53.548Z,15.80
2023-02-12T02:55:25.152Z,15.33
2023-02-12T02:57:58.234Z,13.60
2023-02-12T03:00:33.112Z,14.73
2023-02-12T03:03:08.902Z,14.77
2023-02-12T03:05:44.195Z,14.77
2023-02-12T03:08:15.882Z,14.73
2023-02-12T03:10:46.884Z,15.30
2023-02-12T03:13:21.507Z,13.57
2023-02-12T03:15:54.947Z,13.63
2023-02-12T03:18:31.086Z,14.40
2023-02-12T03:21:04.981Z,14.87
2023-02-12T03:23:43.738Z,13.60
2023-02-12T03:26:18.233Z,14.57
2023-02-12T03:28:46.805Z,15.00
2023-02-12T03:31:26.159Z,13.83
2023-02-12T03:34:06.779Z,13.40
2023-02-12T03:36:43.167Z,13.80
2023-02-12T03:39:20.422Z,17.10
2023-02-12T03:41:54.860Z,14.10
2023-02-12T03:44:30.890Z,16.53
2023-02-12T03:47:03.860Z,13.80
2023-02-12T03:49:39.081Z,14.50
2023-02-12T03:52:10.546Z,13.97
2023-02-12T03:54:38.850Z,14.57
2023-02-12T03:57:10.782Z,13.60
2023-02-12T03:59:40.648Z,14.80
2023-02-12T04:02:09.528Z,15.80
2023-02-12T04:04:40.053Z,13.60
2023-02-12T04:07:08.673Z,13.77
2023-02-12T04:09:36.928Z,16.90
2023-02-12T04:12:16.950Z,15.30
2023-02-12T04:14:51.200Z,14.80
2023-02-12T04:17:28.850Z,13.50
2023-02-12T04:20:10.107Z,14.17
2023-02-12T04:22:52.413Z,13.70
2023-02-12T04:25:34.173Z,14.67
2023-02-12T04:28:10.499Z,14.80
2023-02-12T04:30:45.269Z,14.77
2023-02-12T04:33:20.777Z,14.43
2023-02-12T04:35:56.636Z,13.90
2023-02-12T04:38:29.965Z,13.80
2023-02-12T04:40:59.511Z,16.47
2023-02-12T04:43:29.775Z,14.00
2023-02-12T04:45:58.412Z,13.60
2023-02-12T04:48:43.336Z,13.70
2023-02-12T04:51:27.094Z,14.27
2023-02-12T04:54:07.909Z,13.73
2023-02-12T04:56:38.744Z,16.80
2023-02-12T04:59:07.059Z,13.60
2023-02-12T05:01:36.406Z,15.00
2023-02-12T05:04:05.342Z,13.60
2023-02-12T05:06:36.199Z,13.40
2023-02-12T05:09:04.871Z,13.20
2023-02-12T05:11:33.641Z,13.60
2023-02-12T05:14:02.231Z,13.77
2023-02-12T05:16:30.509Z,13.00
2023-02-12T05:18:58.809Z,13.40
2023-02-12T05:21:27.437Z,13.87
2023-02-12T05:23:57.637Z,13.00
2023-02-12T05:26:27.933Z,13.30
2023-02-12T05:28:56.321Z,13.90
2023-02-12T05:31:24.802Z,13.40
2023-02-12T05:33:53.253Z,13.97
2023-02-12T05:36:23.203Z,14.40
2023-02-12T05:38:54.534Z,13.60
2023-02-12T05:41:25.910Z,13.60
2023-02-12T05:43:54.990Z,13.27
2023-02-12T05:46:23.659Z,13.40
2023-02-12T05:48:52.166Z,28.17
2023-02-12T05:51:23.180Z,31.80
2023-02-12T05:53:53.143Z,33.43
2023-02-12T05:56:24.770Z,33.90
2023-02-12T05:58:55.191Z,33.93
2023-02-12T06:01:26.659Z,34.90
2023-02-12T06:03:55.989Z,35.57
2023-02-12T06:06:26.480Z,35.73
2023-02-12T06:08:55.131Z,34.90
2023-02-12T06:11:25.886Z,34.20
2023-02-12T06:13:54.253Z,33.43
2023-02-12T06:16:25.115Z,35.57
2023-02-12T06:18:54.856Z,34.27
2023-02-12T06:21:25.204Z,32.90
2023-02-12T06:23:54.359Z,35.07
2023-02-12T06:26:24.950Z,32.93
2023-02-12T06:28:53.716Z,34.87
2023-02-12T06:31:24.220Z,33.53
2023-02-12T06:33:53.803Z,32.87
2023-02-12T06:36:22.290Z,33.60
2023-02-12T06:38:51.359Z,31.33
2023-02-12T06:41:20.037Z,28.70
2023-02-12T06:43:49.700Z,30.83
2023-02-12T06:46:17.964Z,31.90
2023-02-12T06:48:46.224Z,31.30
2023-02-12T06:51:16.023Z,32.53
2023-02-12T06:53:45.571Z,32.00
2023-02-12T06:56:14.557Z,31.77
2023-02-12T06:59:01.837Z,33.10
2023-02-12T07:01:32.180Z,30.10
2023-02-12T07:04:02.215Z,33.83
2023-02-12T07:06:32.205Z,30.70
2023-02-12T07:09:00.615Z,32.27
2023-02-12T07:11:30.500Z,32.43
2023-02-12T07:14:00.306Z,29.57
2023-02-12T07:16:28.670Z,31.80
2023-02-12T07:18:57.009Z,30.93
2023-02-12T07:21:28.007Z,29.10
2023-02-12T07:23:56.300Z,13.10
2023-02-12T07:26:25.269Z,13.37
2023-02-12T07:29:00.257Z,28.77
2023-02-12T07:31:32.765Z,32.63
2023-02-12T07:34:05.380Z,30.50
2023-02-12T07:36:37.851Z,31.27
2023-02-12T07:39:07.314Z,29.90
2023-02-12T07:41:37.522Z,29.57
2023-02-12T07:44:10.239Z,31.00
2023-02-12T07:46:40.301Z,30.27
2023-02-12T07:49:12.572Z,30.53
2023-02-12T07:51:40.948Z,30.77
2023-02-12T07:54:09.295Z,29.13
2023-02-12T07:56:40.890Z,30.03
2023-02-12T07:59:14.228Z,30.70
2023-02-12T08:01:44.946Z,29.93
2023-02-12T08:04:15.240Z,31.70
2023-02-12T08:06:49.948Z,32.43
2023-02-12T08:09:20.912Z,32.07
2023-02-12T08:11:50.697Z,29.63
2023-02-12T08:14:23.694Z,29.60
2023-02-12T08:16:53.367Z,28.97
2023-02-12T08:19:26.133Z,28.10
2023-02-12T08:21:57.019Z,30.17
2023-02-12T08:24:25.950Z,30.37
2023-02-12T08:26:54.332Z,31.37
2023-02-12T08:29:27.860Z,30.33
2023-02-12T08:31:59.151Z,31.10
2023-02-12T08:34:32.090Z,30.00
2023-02-12T08:37:13.715Z,30.43
2023-02-12T08:39:42.540Z,28.47
2023-02-12T08:42:11.395Z,30.40
2023-02-12T08:44:42.261Z,31.47
2023-02-12T08:47:11.018Z,29.20
2023-02-12T08:49:41.040Z,29.93
2023-02-12T08:52:09.609Z,29.23
2023-02-12T08:54:38.333Z,29.20
2023-02-12T08:57:06.830Z,28.70
2023-02-12T08:59:35.616Z,27.80
2023-02-12T09:02:08.889Z,28.70
2023-02-12T09:04:44.909Z,28.70
2023-02-12T09:07:19.472Z,28.33
2023-02-12T09:09:51.756Z,30.10
2023-02-12T09:12:20.311Z,29.27
2023-02-12T09:15:06.032Z,29.40
2023-02-12T09:18:12.786Z,29.97
2023-02-12T09:21:01.578Z,29.30
2023-02-12T09:23:56.537Z,26.13
2023-02-12T09:26:31.770Z,27.50
2023-02-12T09:29:04.700Z,27.47
2023-02-12T09:31:38.829Z,27.07
2023-02-12T09:34:12.353Z,26.43
2023-02-12T09:36:44.054Z,27.30
2023-02-12T09:39:22.069Z,27.40
2023-02-12T09:42:32.958Z,27.97
2023-02-12T09:45:31.568Z,27.27
2023-02-12T09:48:17.396Z,26.27
2023-02-12T09:54:04.540Z,27.47
2023-02-12T09:56:52.195Z,29.57
2023-02-12T09:59:31.334Z,27.50
2023-02-12T10:02:12.623Z,26.23
2023-02-12T10:05:00.784Z,26.83
2023-02-12T10:07:55.265Z,25.20
2023-02-12T10:11:07.305Z,25.00
2023-02-12T10:14:08.253Z,25.43
2023-02-12T10:37:14.743Z,27.77
2023-02-12T10:43:30.318Z,22.90
2023-02-12T10:46:34.242Z,23.00
2023-02-12T10:53:28.509Z,22.10
2023-02-12T10:56:20.090Z,22.57
2023-02-12T10:59:06.004Z,22.77
2023-02-12T11:01:37.618Z,22.23
2023-02-12T11:04:41.926Z,22.70
2023-02-12T11:07:15.342Z,23.10
2023-02-12T11:09:50.386Z,22.63
2023-02-12T11:12:34.120Z,23.20
2023-02-12T11:15:34.347Z,22.03
2023-02-12T11:18:11.115Z,21.77
2023-02-12T11:21:10.880Z,20.13
2023-02-12T11:23:58.288Z,21.33
2023-02-12T11:29:33.116Z,19.80
2023-02-12T11:32:10.495Z,19.67
2023-02-12T11:34:39.944Z,21.03
2023-02-12T11:37:46.578Z,20.37
2023-02-12T11:44:14.125Z,20.57
2023-02-12T11:47:53.403Z,19.83
2023-02-12T11:56:21.953Z,19.23
2023-02-12T11:59:09.127Z,20.30
2023-02-12T12:01:45.837Z,18.10
2023-02-12T12:04:24.833Z,20.03
2023-02-12T12:07:00.609Z,19.20
2023-02-12T12:10:00.835Z,19.03
2023-02-12T12:12:45.092Z,20.57
2023-02-12T12:20:15.342Z,18.90
2023-02-12T12:23:16.955Z,18.50
2023-02-12T12:25:56.213Z,19.90
2023-02-12T12:28:37.701Z,19.87
2023-02-12T12:31:53.384Z,19.67
2023-02-12T12:34:38.175Z,19.93
2023-02-12T12:37:52.731Z,19.40
2023-02-12T12:40:40.053Z,19.73
2023-02-12T12:43:21.762Z,19.00
2023-02-12T12:46:38.558Z,18.17
2023-02-12T12:49:42.698Z,18.30
2023-02-12T12:52:43.980Z,18.30
2023-02-12T12:58:56.915Z,19.20
2023-02-12T13:01:54.507Z,19.97
2023-02-12T13:04:54.620Z,19.60
2023-02-12T13:07:46.444Z,19.50
2023-02-12T13:10:31.102Z,20.00
2023-02-12T13:13:33.030Z,19.53
2023-02-12T13:16:21.189Z,18.20
2023-02-12T13:19:01.365Z,19.03
2023-02-12T13:21:43.366Z,18.63
2023-02-12T13:24:40.165Z,18.97
2023-02-12T13:27:35.169Z,18.17
2023-02-12T13:30:25.772Z,18.90
2023-02-12T13:33:03.892Z,19.20
2023-02-12T13:45:05.740Z,18.57
2023-02-12T13:47:48.577Z,20.17
2023-02-12T13:50:32.646Z,20.13
2023-02-12T13:53:08.778Z,19.50
2023-02-12T13:55:45.652Z,19.20
2023-02-12T13:58:48.700Z,18.10
2023-02-12T14:01:45.861Z,18.17
2023-02-12T14:04:34.595Z,18.17
2023-02-12T14:07:06.834Z,18.20
2023-02-12T14:09:39.207Z,17.60
2023-02-12T14:12:13.103Z,19.37
2023-02-12T14:14:44.743Z,18.73
2023-02-12T14:17:44.403Z,19.35
2023-02-12T14:20:30.635Z,20.90
2023-02-12T14:23:24.733Z,20.10
2023-02-12T14:26:04.217Z,21.23
2023-02-12T14:28:51.839Z,20.17
2023-02-12T14:31:35.023Z,19.07
2023-02-12T14:34:50.403Z,21.03
2023-02-12T14:37:37.644Z,20.90
2023-02-12T14:40:33.107Z,18.27
2023-02-12T14:43:03.162Z,20.10
2023-02-12T14:45:35.850Z,19.53
2023-02-12T14:48:06.418Z,18.63
2023-02-12T14:50:42.033Z,20.13
2023-02-12T14:53:30.446Z,18.60
2023-02-12T14:56:00.329Z,19.87
2023-02-12T14:58:30.858Z,20.27
2023-02-12T15:01:02.413Z,20.07
2023-02-12T15:03:43.366Z,18.90
2023-02-12T15:06:17.568Z,19.27
2023-02-12T15:08:54.062Z,19.00
2023-02-12T15:11:31.140Z,19.43
2023-02-12T15:14:04.550Z,19.13
2023-02-12T15:16:53.931Z,21.93
2023-02-12T15:19:34.560Z,20.47
2023-02-12T15:22:05.543Z,19.60
2023-02-12T15:24:55.375Z,20.17
2023-02-12T15:27:40.000Z,20.90
2023-02-12T15:30:25.988Z,21.30
2023-02-12T15:32:57.297Z,20.93
2023-02-12T15:35:27.912Z,20.67
2023-02-12T15:38:01.152Z,22.58
2023-02-12T15:40:32.697Z,24.13
2023-02-12T15:43:07.806Z,22.23
2023-02-12T15:45:44.741Z,22.57
2023-02-12T15:48:38.069Z,22.00
2023-02-12T15:51:32.917Z,23.10
2023-02-12T15:54:05.620Z,22.03
2023-02-12T15:56:40.585Z,22.00
2023-02-12T15:59:23.281Z,22.23
2023-02-12T16:02:03.013Z,21.83
2023-02-12T16:04:37.293Z,22.13
2023-02-12T16:07:17.995Z,21.63
2023-02-12T16:09:58.712Z,21.97
2023-02-12T16:12:42.631Z,24.47
2023-02-12T16:15:47.620Z,24.03
2023-02-12T16:18:25.942Z,20.90
2023-02-12T16:21:05.607Z,24.93
2023-02-12T16:23:36.042Z,21.97
2023-02-12T16:26:04.865Z,25.30
2023-02-12T16:28:36.531Z,23.23
2023-02-12T16:31:12.480Z,24.30
2023-02-12T16:33:57.815Z,24.60
2023-02-12T16:36:32.623Z,22.77
2023-02-12T16:39:03.630Z,23.27
2023-02-12T16:41:34.017Z,24.87
2023-02-12T16:44:37.680Z,23.20
2023-02-12T16:47:06.191Z,24.47
2023-02-12T16:49:34.688Z,22.10
2023-02-12T16:52:29.542Z,23.87
2023-02-12T16:54:58.918Z,23.60
2023-02-12T16:57:27.800Z,24.30
2023-02-12T16:59:57.965Z,23.80
2023-02-12T17:02:26.811Z,24.43
2023-02-12T17:05:02.339Z,23.43
2023-02-12T17:07:32.382Z,23.80
2023-02-12T17:10:01.111Z,25.13
2023-02-12T17:12:29.995Z,24.67
2023-02-12T17:15:13.479Z,23.87
2023-02-12T17:17:42.275Z,24.73
2023-02-12T17:20:11.564Z,23.63
2023-02-12T17:23:36.677Z,24.50
2023-02-12T17:26:07.518Z,23.40
2023-02-12T17:28:36.105Z,23.90
2023-02-12T17:31:08.121Z,25.70
2023-02-12T17:33:36.747Z,25.30
2023-02-12T17:36:05.910Z,26.60
2023-02-12T17:38:34.623Z,26.93
2023-02-12T17:41:10.740Z,26.27
2023-02-12T17:43:40.033Z,26.00
2023-02-12T17:46:12.962Z,26.30
2023-02-12T17:48:43.960Z,26.50
2023-02-12T17:51:13.580Z,25.23
2023-02-12T17:53:44.589Z,26.30
2023-02-12T17:56:15.107Z,25.60
2023-02-12T17:58:44.802Z,26.77
2023-02-12T18:01:20.219Z,27.93
2023-02-12T18:03:55.385Z,26.90
2023-02-12T18:06:47.362Z,25.20
2023-02-12T18:09:26.926Z,25.83
2023-02-12T18:12:03.137Z,25.63
2023-02-12T18:14:38.284Z,24.70
2023-02-12T18:17:11.310Z,25.43
2023-02-12T18:19:40.166Z,26.10
2023-02-12T18:22:08.626Z,25.30
2023-02-12T18:24:40.626Z,25.03
2023-02-12T18:27:08.966Z,24.70
2023-02-12T18:29:46.338Z,25.87
2023-02-12T18:32:23.936Z,25.03
2023-02-12T18:42:25.328Z,25.70
2023-02-12T18:45:37.991Z,24.77
2023-02-12T18:53:32.722Z,26.10
2023-02-12T18:56:28.915Z,21.90
2023-02-12T18:59:01.044Z,27.73
2023-02-12T19:06:00.685Z,25.77
2023-02-12T19:09:56.685Z,27.90
2023-02-12T19:16:37.959Z,26.90
2023-02-12T19:19:32.671Z,28.47
2023-02-12T19:22:10.758Z,28.07
2023-02-12T19:24:52.124Z,27.80
2023-02-12T19:27:31.244Z,27.30
2023-02-12T19:30:18.398Z,27.90
2023-02-12T19:32:48.118Z,29.37
2023-02-12T19:35:22.778Z,28.67
2023-02-12T19:37:52.938Z,27.90
2023-02-12T19:40:22.062Z,28.37
2023-02-12T19:42:57.999Z,29.77
2023-02-12T19:45:26.718Z,31.70
2023-02-12T19:48:54.827Z,29.87
2023-02-12T19:51:34.316Z,25.03
2023-02-12T19:54:45.821Z,29.13
2023-02-12T19:57:20.250Z,28.80
2023-02-12T20:00:21.981Z,27.83
2023-02-12T20:03:16.090Z,29.13
2023-02-12T20:05:55.725Z,28.90
2023-02-12T20:08:42.103Z,30.70
2023-02-12T20:11:15.610Z,29.40
2023-02-12T20:13:45.178Z,29.67
2023-02-12T20:16:18.168Z,31.47
2023-02-12T20:18:48.872Z,33.20
2023-02-12T20:21:23.161Z,29.23
2023-02-12T20:23:54.776Z,31.03
2023-02-12T20:26:26.645Z,30.60
2023-02-12T20:29:56.389Z,31.90
2023-02-12T20:32:24.870Z,31.50
2023-02-12T20:34:53.427Z,29.33
2023-02-12T20:37:22.038Z,29.67
2023-02-12T20:39:51.804Z,29.77
2023-02-12T20:43:04.476Z,28.40
2023-02-12T20:45:36.743Z,29.13
2023-02-12T20:48:05.266Z,28.20
2023-02-12T20:50:34.937Z,28.67
2023-02-12T21:05:10.281Z,28.27
2023-02-12T21:16:31.057Z,29.20
2023-02-12T21:19:03.669Z,30.13
2023-02-12T21:37:59.122Z,31.03
2023-02-12T21:40:30.168Z,30.90
2023-02-12T21:43:00.255Z,31.80
2023-02-12T21:45:28.892Z,30.77
2023-02-12T21:47:57.300Z,31.67
2023-02-12T21:50:26.161Z,30.83
2023-02-12T21:53:00.651Z,31.00
2023-02-12T21:55:30.695Z,32.07
2023-02-12T21:57:59.715Z,31.23
2023-02-12T22:00:28.652Z,31.77
2023-02-12T22:02:57.173Z,31.03
2023-02-12T22:05:32.364Z,32.00
2023-02-12T22:08:03.992Z,29.60
2023-02-12T22:10:42.949Z,30.60
2023-02-12T22:13:12.058Z,29.67
2023-02-12T22:15:41.087Z,29.90
2023-02-12T22:18:11.001Z,29.60
2023-02-12T22:20:39.598Z,28.30
2023-02-12T22:23:08.480Z,29.10
2023-02-12T22:25:38.657Z,29.93
2023-02-12T22:28:07.005Z,30.77
2023-02-12T22:30:35.500Z,30.50
2023-02-12T22:33:04.094Z,32.47
2023-02-12T22:35:32.393Z,31.93
2023-02-12T22:38:00.830Z,29.47
2023-02-12T22:40:29.184Z,34.70
2023-02-12T22:42:59.335Z,32.70
2023-02-12T22:45:27.615Z,32.33
2023-02-12T22:47:55.931Z,33.13
2023-02-12T22:50:24.239Z,32.50
2023-02-12T22:52:52.616Z,31.50
2023-02-12T22:55:21.229Z,32.77
2023-02-12T22:57:49.633Z,30.60
2023-02-12T23:00:20.989Z,31.53
2023-02-12T23:02:49.444Z,32.83
2023-02-12T23:05:18.040Z,31.93
2023-02-12T23:07:46.275Z,33.10
2023-02-12T23:10:16.655Z,34.40
2023-02-12T23:12:45.209Z,30.90
2023-02-12T23:18:40.871Z,30.13
2023-02-12T23:21:09.237Z,30.27
2023-02-12T23:23:37.564Z,31.20
2023-02-12T23:26:06.443Z,30.87
2023-02-12T23:28:37.816Z,31.60
2023-02-12T23:31:06.669Z,33.80
2023-02-12T23:33:35.250Z,30.67
2023-02-12T23:36:05.456Z,30.07
2023-02-12T23:38:33.842Z,31.33
2023-02-12T23:41:02.243Z,28.00
2023-02-12T23:43:30.505Z,30.23
2023-02-12T23:45:59.030Z,28.30
2023-02-12T23:48:27.493Z,28.97
2023-02-12T23:50:56.175Z,31.03
2023-02-12T23:53:28.461Z,29.73
2023-02-12T23:55:57.127Z,29.70
2023-02-12T23:58:28.894Z,30.60
